sensor_id;sensor_type;location;lat;lon;timestamp;temperature;humidity
27266;DHT22;14766;51.380;13.762;2023-02-18T00:01:26;12.20;60.80
27266;DHT22;14766;51.380;13.762;2023-02-18T00:03:53;12.20;61.10
27266;DHT22;14766;51.380;13.762;2023-02-18T00:06:29;12.20;61.30
27266;DHT22;14766;51.380;13.762;2023-02-18T00:08:58;12.20;61.30
27266;DHT22;14766;51.380;13.762;2023-02-18T00:11:31;12.10;61.20
27266;DHT22;14766;51.380;13.762;2023-02-18T00:14:00;12.10;61.30
27266;DHT22;14766;51.380;13.762;2023-02-18T00:16:28;12.10;61.50
27266;DHT22;14766;51.380;13.762;2023-02-18T00:18:57;12.10;61.60
27266;DHT22;14766;51.380;13.762;2023-02-18T00:21:25;12.00;61.50
27266;DHT22;14766;51.380;13.762;2023-02-18T00:23:54;12.00;61.40
27266;DHT22;14766;51.380;13.762;2023-02-18T00:26:21;12.00;61.40
27266;DHT22;14766;51.380;13.762;2023-02-18T00:28:48;12.00;61.30
27266;DHT22;14766;51.380;13.762;2023-02-18T00:31:22;12.00;61.10
27266;DHT22;14766;51.380;13.762;2023-02-18T00:33:49;11.90;60.70
27266;DHT22;14766;51.380;13.762;2023-02-18T00:36:18;11.90;60.50
27266;DHT22;14766;51.380;13.762;2023-02-18T00:38:53;11.90;60.10
27266;DHT22;14766;51.380;13.762;2023-02-18T00:41:22;11.80;59.50
27266;DHT22;14766;51.380;13.762;2023-02-18T00:43:50;11.90;58.90
27266;DHT22;14766;51.380;13.762;2023-02-18T00:46:19;11.80;57.60
27266;DHT22;14766;51.380;13.762;2023-02-18T00:48:46;11.80;56.00
27266;DHT22;14766;51.380;13.762;2023-02-18T00:51:14;11.70;55.80
27266;DHT22;14766;51.380;13.762;2023-02-18T00:53:41;11.70;55.70
27266;DHT22;14766;51.380;13.762;2023-02-18T00:56:08;11.70;55.40
27266;DHT22;14766;51.380;13.762;2023-02-18T00:58:35;11.70;55.70
27266;DHT22;14766;51.380;13.762;2023-02-18T01:01:04;11.60;55.40
27266;DHT22;14766;51.380;13.762;2023-02-18T01:03:34;11.60;55.60
27266;DHT22;14766;51.380;13.762;2023-02-18T01:06:03;11.60;55.90
27266;DHT22;14766;51.380;13.762;2023-02-18T01:08:32;11.60;55.40
27266;DHT22;14766;51.380;13.762;2023-02-18T01:11:00;11.50;54.80
27266;DHT22;14766;51.380;13.762;2023-02-18T01:13:27;11.60;54.30
27266;DHT22;14766;51.380;13.762;2023-02-18T01:15:55;11.50;53.60
27266;DHT22;14766;51.380;13.762;2023-02-18T01:18:25;11.50;53.40
27266;DHT22;14766;51.380;13.762;2023-02-18T01:20:53;11.50;53.80
27266;DHT22;14766;51.380;13.762;2023-02-18T01:23:22;11.50;54.30
27266;DHT22;14766;51.380;13.762;2023-02-18T01:25:49;11.50;54.40
27266;DHT22;14766;51.380;13.762;2023-02-18T01:28:16;11.50;54.50
27266;DHT22;14766;51.380;13.762;2023-02-18T01:30:44;11.50;54.30
27266;DHT22;14766;51.380;13.762;2023-02-18T01:33:11;11.50;54.00
27266;DHT22;14766;51.380;13.762;2023-02-18T01:35:39;11.50;54.30
27266;DHT22;14766;51.380;13.762;2023-02-18T01:38:06;11.50;54.20
27266;DHT22;14766;51.380;13.762;2023-02-18T01:40:34;11.50;54.00
27266;DHT22;14766;51.380;13.762;2023-02-18T01:43:02;11.50;54.40
27266;DHT22;14766;51.380;13.762;2023-02-18T01:48:14;11.40;54.50
27266;DHT22;14766;51.380;13.762;2023-02-18T01:50:46;11.50;54.60
27266;DHT22;14766;51.380;13.762;2023-02-18T01:53:17;11.50;54.00
27266;DHT22;14766;51.380;13.762;2023-02-18T01:55:47;11.40;53.80
27266;DHT22;14766;51.380;13.762;2023-02-18T01:58:15;11.30;53.60
27266;DHT22;14766;51.380;13.762;2023-02-18T02:00:44;11.30;53.20
27266;DHT22;14766;51.380;13.762;2023-02-18T02:03:13;11.30;54.00
27266;DHT22;14766;51.380;13.762;2023-02-18T02:05:42;11.30;52.90
27266;DHT22;14766;51.380;13.762;2023-02-18T02:08:14;11.20;52.90
27266;DHT22;14766;51.380;13.762;2023-02-18T02:10:55;11.20;53.20
27266;DHT22;14766;51.380;13.762;2023-02-18T02:14:09;11.20;53.30
27266;DHT22;14766;51.380;13.762;2023-02-18T02:22:39;11.10;53.10
27266;DHT22;14766;51.380;13.762;2023-02-18T02:35:23;10.90;53.00
27266;DHT22;14766;51.380;13.762;2023-02-18T02:37:59;10.90;53.10
27266;DHT22;14766;51.380;13.762;2023-02-18T02:40:37;10.80;53.00
27266;DHT22;14766;51.380;13.762;2023-02-18T02:43:45;10.80;53.20
27266;DHT22;14766;51.380;13.762;2023-02-18T02:46:18;10.80;53.10
27266;DHT22;14766;51.380;13.762;2023-02-18T02:48:58;10.80;53.10
27266;DHT22;14766;51.380;13.762;2023-02-18T02:54:17;10.80;53.40
27266;DHT22;14766;51.380;13.762;2023-02-18T02:56:44;10.80;53.30
27266;DHT22;14766;51.380;13.762;2023-02-18T02:59:23;10.80;53.40
27266;DHT22;14766;51.380;13.762;2023-02-18T03:02:06;10.80;53.50
27266;DHT22;14766;51.380;13.762;2023-02-18T03:13:32;10.90;53.00
27266;DHT22;14766;51.380;13.762;2023-02-18T03:21:32;10.90;53.20
27266;DHT22;14766;51.380;13.762;2023-02-18T03:24:38;10.90;52.90
27266;DHT22;14766;51.380;13.762;2023-02-18T03:27:29;10.90;52.90
27266;DHT22;14766;51.380;13.762;2023-02-18T03:30:07;10.90;52.80
27266;DHT22;14766;51.380;13.762;2023-02-18T03:32:37;10.90;52.80
27266;DHT22;14766;51.380;13.762;2023-02-18T03:35:08;11.00;52.80
27266;DHT22;14766;51.380;13.762;2023-02-18T03:38:18;11.00;53.80
27266;DHT22;14766;51.380;13.762;2023-02-18T03:40:35;11.00;52.80
27266;DHT22;14766;51.380;13.762;2023-02-18T03:43:03;11.00;53.10
27266;DHT22;14766;51.380;13.762;2023-02-18T03:45:30;11.00;53.00
27266;DHT22;14766;51.380;13.762;2023-02-18T03:47:57;11.00;53.50
27266;DHT22;14766;51.380;13.762;2023-02-18T03:50:25;11.00;54.00
27266;DHT22;14766;51.380;13.762;2023-02-18T03:52:52;11.00;54.50
27266;DHT22;14766;51.380;13.762;2023-02-18T03:55:19;11.00;54.90
27266;DHT22;14766;51.380;13.762;2023-02-18T03:57:46;11.00;55.20
27266;DHT22;14766;51.380;13.762;2023-02-18T04:00:13;11.00;55.50
27266;DHT22;14766;51.380;13.762;2023-02-18T04:02:41;11.00;55.60
27266;DHT22;14766;51.380;13.762;2023-02-18T04:05:08;11.10;55.90
27266;DHT22;14766;51.380;13.762;2023-02-18T04:07:36;11.00;56.10
27266;DHT22;14766;51.380;13.762;2023-02-18T04:10:04;11.10;56.30
27266;DHT22;14766;51.380;13.762;2023-02-18T04:12:31;11.00;56.40
27266;DHT22;14766;51.380;13.762;2023-02-18T04:14:58;11.00;56.50
27266;DHT22;14766;51.380;13.762;2023-02-18T04:17:25;11.00;56.60
27266;DHT22;14766;51.380;13.762;2023-02-18T04:19:52;11.00;56.70
27266;DHT22;14766;51.380;13.762;2023-02-18T04:22:19;11.10;57.00
27266;DHT22;14766;51.380;13.762;2023-02-18T04:24:46;11.00;57.10
27266;DHT22;14766;51.380;13.762;2023-02-18T04:27:13;11.10;57.30
27266;DHT22;14766;51.380;13.762;2023-02-18T04:29:41;11.10;57.40
27266;DHT22;14766;51.380;13.762;2023-02-18T04:32:08;11.10;57.70
27266;DHT22;14766;51.380;13.762;2023-02-18T04:34:35;11.10;57.90
27266;DHT22;14766;51.380;13.762;2023-02-18T04:37:02;11.10;58.00
27266;DHT22;14766;51.380;13.762;2023-02-18T04:39:29;11.10;58.10
27266;DHT22;14766;51.380;13.762;2023-02-18T04:41:56;11.20;58.20
27266;DHT22;14766;51.380;13.762;2023-02-18T04:44:23;11.20;58.20
27266;DHT22;14766;51.380;13.762;2023-02-18T04:46:50;11.20;58.20
27266;DHT22;14766;51.380;13.762;2023-02-18T04:49:17;11.20;58.20
27266;DHT22;14766;51.380;13.762;2023-02-18T04:51:44;11.20;58.90
27266;DHT22;14766;51.380;13.762;2023-02-18T04:54:11;11.20;58.20
27266;DHT22;14766;51.380;13.762;2023-02-18T04:56:38;11.20;58.20
27266;DHT22;14766;51.380;13.762;2023-02-18T04:59:06;11.30;58.30
27266;DHT22;14766;51.380;13.762;2023-02-18T05:01:33;11.30;58.20
27266;DHT22;14766;51.380;13.762;2023-02-18T05:04:00;11.30;58.30
27266;DHT22;14766;51.380;13.762;2023-02-18T05:06:27;11.30;58.30
27266;DHT22;14766;51.380;13.762;2023-02-18T05:08:54;11.30;58.50
27266;DHT22;14766;51.380;13.762;2023-02-18T05:11:21;11.30;59.20
27266;DHT22;14766;51.380;13.762;2023-02-18T05:13:48;11.30;58.60
27266;DHT22;14766;51.380;13.762;2023-02-18T05:16:15;11.30;58.60
27266;DHT22;14766;51.380;13.762;2023-02-18T05:18:42;11.30;58.60
27266;DHT22;14766;51.380;13.762;2023-02-18T05:21:09;11.30;58.60
27266;DHT22;14766;51.380;13.762;2023-02-18T05:23:41;11.30;58.60
27266;DHT22;14766;51.380;13.762;2023-02-18T05:26:08;11.30;58.30
27266;DHT22;14766;51.380;13.762;2023-02-18T05:28:35;11.30;58.30
27266;DHT22;14766;51.380;13.762;2023-02-18T05:31:03;11.30;58.00
27266;DHT22;14766;51.380;13.762;2023-02-18T05:33:30;11.30;58.10
27266;DHT22;14766;51.380;13.762;2023-02-18T05:36:00;11.30;58.10
27266;DHT22;14766;51.380;13.762;2023-02-18T05:38:27;11.30;58.20
27266;DHT22;14766;51.380;13.762;2023-02-18T05:40:54;11.30;58.20
27266;DHT22;14766;51.380;13.762;2023-02-18T05:43:21;11.40;58.30
27266;DHT22;14766;51.380;13.762;2023-02-18T05:45:48;11.30;58.30
27266;DHT22;14766;51.380;13.762;2023-02-18T05:48:15;11.30;58.30
27266;DHT22;14766;51.380;13.762;2023-02-18T05:50:43;11.30;58.40
27266;DHT22;14766;51.380;13.762;2023-02-18T05:53:10;11.30;58.60
27266;DHT22;14766;51.380;13.762;2023-02-18T05:55:37;11.30;58.70
27266;DHT22;14766;51.380;13.762;2023-02-18T05:58:05;11.30;58.90
27266;DHT22;14766;51.380;13.762;2023-02-18T06:00:32;11.30;59.10
27266;DHT22;14766;51.380;13.762;2023-02-18T06:03:01;11.30;59.20
27266;DHT22;14766;51.380;13.762;2023-02-18T06:05:28;11.30;59.40
27266;DHT22;14766;51.380;13.762;2023-02-18T06:07:55;11.40;59.60
27266;DHT22;14766;51.380;13.762;2023-02-18T06:10:22;11.30;59.90
27266;DHT22;14766;51.380;13.762;2023-02-18T06:12:49;11.40;60.30
27266;DHT22;14766;51.380;13.762;2023-02-18T06:15:16;11.40;60.50
27266;DHT22;14766;51.380;13.762;2023-02-18T06:17:43;11.30;59.70
27266;DHT22;14766;51.380;13.762;2023-02-18T06:20:11;11.30;60.60
27266;DHT22;14766;51.380;13.762;2023-02-18T06:22:38;11.30;60.30
27266;DHT22;14766;51.380;13.762;2023-02-18T06:25:05;11.30;60.60
27266;DHT22;14766;51.380;13.762;2023-02-18T06:27:33;11.30;60.80
27266;DHT22;14766;51.380;13.762;2023-02-18T06:30:00;11.30;61.60
27266;DHT22;14766;51.380;13.762;2023-02-18T06:32:27;11.30;62.20
27266;DHT22;14766;51.380;13.762;2023-02-18T06:34:54;11.30;62.20
27266;DHT22;14766;51.380;13.762;2023-02-18T06:37:22;11.30;62.10
27266;DHT22;14766;51.380;13.762;2023-02-18T06:39:49;11.30;63.20
27266;DHT22;14766;51.380;13.762;2023-02-18T06:42:16;11.30;63.80
27266;DHT22;14766;51.380;13.762;2023-02-18T06:44:43;11.30;64.80
27266;DHT22;14766;51.380;13.762;2023-02-18T06:47:10;11.30;65.10
27266;DHT22;14766;51.380;13.762;2023-02-18T06:49:37;11.30;65.40
27266;DHT22;14766;51.380;13.762;2023-02-18T06:52:05;11.30;65.80
27266;DHT22;14766;51.380;13.762;2023-02-18T06:54:33;11.30;66.30
27266;DHT22;14766;51.380;13.762;2023-02-18T06:57:00;11.30;66.00
27266;DHT22;14766;51.380;13.762;2023-02-18T06:59:27;11.30;66.20
27266;DHT22;14766;51.380;13.762;2023-02-18T07:01:54;11.30;66.30
27266;DHT22;14766;51.380;13.762;2023-02-18T07:04:22;11.30;66.80
27266;DHT22;14766;51.380;13.762;2023-02-18T07:06:49;11.30;66.80
27266;DHT22;14766;51.380;13.762;2023-02-18T07:09:16;11.30;66.70
27266;DHT22;14766;51.380;13.762;2023-02-18T07:11:43;11.30;66.90
27266;DHT22;14766;51.380;13.762;2023-02-18T07:14:10;11.30;66.80
27266;DHT22;14766;51.380;13.762;2023-02-18T07:16:37;11.30;67.00
27266;DHT22;14766;51.380;13.762;2023-02-18T07:19:04;11.30;67.30
27266;DHT22;14766;51.380;13.762;2023-02-18T07:21:32;11.30;67.40
27266;DHT22;14766;51.380;13.762;2023-02-18T07:23:59;11.30;67.50
27266;DHT22;14766;51.380;13.762;2023-02-18T07:26:26;11.30;67.40
27266;DHT22;14766;51.380;13.762;2023-02-18T07:28:53;11.30;67.70
27266;DHT22;14766;51.380;13.762;2023-02-18T07:31:20;11.30;68.30
27266;DHT22;14766;51.380;13.762;2023-02-18T07:33:48;11.30;68.40
27266;DHT22;14766;51.380;13.762;2023-02-18T07:36:15;11.30;68.90
27266;DHT22;14766;51.380;13.762;2023-02-18T07:38:43;11.30;69.20
27266;DHT22;14766;51.380;13.762;2023-02-18T07:41:18;11.30;69.20
27266;DHT22;14766;51.380;13.762;2023-02-18T07:43:46;11.30;69.10
27266;DHT22;14766;51.380;13.762;2023-02-18T07:46:14;11.20;69.20
27266;DHT22;14766;51.380;13.762;2023-02-18T07:48:41;11.20;69.80
27266;DHT22;14766;51.380;13.762;2023-02-18T07:51:10;11.20;69.50
27266;DHT22;14766;51.380;13.762;2023-02-18T07:53:38;11.20;69.70
27266;DHT22;14766;51.380;13.762;2023-02-18T07:56:05;11.20;70.60
27266;DHT22;14766;51.380;13.762;2023-02-18T07:58:35;11.20;70.10
27266;DHT22;14766;51.380;13.762;2023-02-18T08:01:07;11.20;70.70
27266;DHT22;14766;51.380;13.762;2023-02-18T08:03:35;11.20;70.80
27266;DHT22;14766;51.380;13.762;2023-02-18T08:06:03;11.20;71.40
27266;DHT22;14766;51.380;13.762;2023-02-18T08:08:31;11.20;71.40
27266;DHT22;14766;51.380;13.762;2023-02-18T08:11:02;11.20;71.20
27266;DHT22;14766;51.380;13.762;2023-02-18T08:13:42;11.20;71.10
27266;DHT22;14766;51.380;13.762;2023-02-18T08:16:12;11.20;71.30
27266;DHT22;14766;51.380;13.762;2023-02-18T08:18:39;11.20;71.30
27266;DHT22;14766;51.380;13.762;2023-02-18T08:21:06;11.20;71.20
27266;DHT22;14766;51.380;13.762;2023-02-18T08:23:33;11.20;71.20
27266;DHT22;14766;51.380;13.762;2023-02-18T08:26:00;11.10;71.40
27266;DHT22;14766;51.380;13.762;2023-02-18T08:28:28;11.20;71.70
27266;DHT22;14766;51.380;13.762;2023-02-18T08:30:54;11.20;71.20
27266;DHT22;14766;51.380;13.762;2023-02-18T08:33:22;11.20;71.20
27266;DHT22;14766;51.380;13.762;2023-02-18T08:35:51;11.20;71.20
27266;DHT22;14766;51.380;13.762;2023-02-18T08:38:19;11.20;71.30
27266;DHT22;14766;51.380;13.762;2023-02-18T08:40:46;11.20;71.20
27266;DHT22;14766;51.380;13.762;2023-02-18T08:43:15;11.20;71.70
27266;DHT22;14766;51.380;13.762;2023-02-18T08:45:43;11.20;71.30
27266;DHT22;14766;51.380;13.762;2023-02-18T08:48:13;11.20;71.40
27266;DHT22;14766;51.380;13.762;2023-02-18T08:50:46;11.20;71.30
27266;DHT22;14766;51.380;13.762;2023-02-18T08:53:14;11.20;71.20
27266;DHT22;14766;51.380;13.762;2023-02-18T08:55:41;11.20;71.10
27266;DHT22;14766;51.380;13.762;2023-02-18T08:58:09;11.20;70.90
27266;DHT22;14766;51.380;13.762;2023-02-18T09:00:37;11.20;71.00
27266;DHT22;14766;51.380;13.762;2023-02-18T09:03:04;11.20;71.00
27266;DHT22;14766;51.380;13.762;2023-02-18T09:05:31;11.20;70.90
27266;DHT22;14766;51.380;13.762;2023-02-18T09:07:59;11.30;71.10
27266;DHT22;14766;51.380;13.762;2023-02-18T09:10:26;11.20;71.10
27266;DHT22;14766;51.380;13.762;2023-02-18T09:12:53;11.30;71.20
27266;DHT22;14766;51.380;13.762;2023-02-18T09:15:20;11.30;71.00
27266;DHT22;14766;51.380;13.762;2023-02-18T09:17:47;11.30;71.00
27266;DHT22;14766;51.380;13.762;2023-02-18T09:20:14;11.30;71.00
27266;DHT22;14766;51.380;13.762;2023-02-18T09:22:41;11.30;71.20
27266;DHT22;14766;51.380;13.762;2023-02-18T09:25:08;11.30;71.20
27266;DHT22;14766;51.380;13.762;2023-02-18T09:27:35;11.30;71.00
27266;DHT22;14766;51.380;13.762;2023-02-18T09:30:03;11.30;70.80
27266;DHT22;14766;51.380;13.762;2023-02-18T09:32:31;11.30;71.10
27266;DHT22;14766;51.380;13.762;2023-02-18T09:35:02;11.30;71.00
27266;DHT22;14766;51.380;13.762;2023-02-18T09:37:29;11.30;71.20
27266;DHT22;14766;51.380;13.762;2023-02-18T09:39:57;11.30;70.90
27266;DHT22;14766;51.380;13.762;2023-02-18T09:42:30;11.40;71.20
27266;DHT22;14766;51.380;13.762;2023-02-18T09:45:02;11.40;71.10
27266;DHT22;14766;51.380;13.762;2023-02-18T09:47:39;11.40;70.80
27266;DHT22;14766;51.380;13.762;2023-02-18T09:50:13;11.40;71.20
27266;DHT22;14766;51.380;13.762;2023-02-18T09:52:44;11.40;71.20
27266;DHT22;14766;51.380;13.762;2023-02-18T09:55:29;11.40;71.30
27266;DHT22;14766;51.380;13.762;2023-02-18T09:58:03;11.40;71.40
27266;DHT22;14766;51.380;13.762;2023-02-18T10:00:38;11.40;71.30
27266;DHT22;14766;51.380;13.762;2023-02-18T10:03:16;11.40;71.40
27266;DHT22;14766;51.380;13.762;2023-02-18T10:08:54;11.40;72.40
27266;DHT22;14766;51.380;13.762;2023-02-18T10:11:40;11.40;72.10
27266;DHT22;14766;51.380;13.762;2023-02-18T10:14:12;11.30;72.20
27266;DHT22;14766;51.380;13.762;2023-02-18T10:16:40;11.30;72.50
27266;DHT22;14766;51.380;13.762;2023-02-18T10:19:21;11.30;72.90
27266;DHT22;14766;51.380;13.762;2023-02-18T10:21:51;11.30;73.20
27266;DHT22;14766;51.380;13.762;2023-02-18T10:24:34;11.30;74.00
27266;DHT22;14766;51.380;13.762;2023-02-18T10:27:05;11.30;74.00
27266;DHT22;14766;51.380;13.762;2023-02-18T10:29:34;11.30;74.30
27266;DHT22;14766;51.380;13.762;2023-02-18T10:32:21;11.30;74.40
27266;DHT22;14766;51.380;13.762;2023-02-18T10:35:15;11.40;74.70
27266;DHT22;14766;51.380;13.762;2023-02-18T10:49:08;11.50;77.60
27266;DHT22;14766;51.380;13.762;2023-02-18T10:51:44;11.50;78.40
27266;DHT22;14766;51.380;13.762;2023-02-18T10:54:14;11.60;79.00
27266;DHT22;14766;51.380;13.762;2023-02-18T10:56:52;11.60;81.00
27266;DHT22;14766;51.380;13.762;2023-02-18T10:59:32;11.60;82.30
27266;DHT22;14766;51.380;13.762;2023-02-18T11:02:03;11.70;82.70
27266;DHT22;14766;51.380;13.762;2023-02-18T11:04:39;11.70;83.10
27266;DHT22;14766;51.380;13.762;2023-02-18T11:07:26;11.80;83.90
27266;DHT22;14766;51.380;13.762;2023-02-18T11:09:57;11.90;84.10
27266;DHT22;14766;51.380;13.762;2023-02-18T11:15:25;12.00;84.40
27266;DHT22;14766;51.380;13.762;2023-02-18T11:17:55;12.00;84.20
27266;DHT22;14766;51.380;13.762;2023-02-18T11:22:50;12.10;83.70
27266;DHT22;14766;51.380;13.762;2023-02-18T11:27:54;12.30;83.10
27266;DHT22;14766;51.380;13.762;2023-02-18T11:30:32;12.40;82.90
27266;DHT22;14766;51.380;13.762;2023-02-18T11:33:17;12.40;82.60
27266;DHT22;14766;51.380;13.762;2023-02-18T11:35:54;12.40;82.50
27266;DHT22;14766;51.380;13.762;2023-02-18T11:38:25;12.50;82.20
27266;DHT22;14766;51.380;13.762;2023-02-18T11:40:56;12.50;81.90
27266;DHT22;14766;51.380;13.762;2023-02-18T11:43:29;12.60;81.80
27266;DHT22;14766;51.380;13.762;2023-02-18T11:46:13;12.60;81.40
27266;DHT22;14766;51.380;13.762;2023-02-18T11:48:41;12.70;81.30
27266;DHT22;14766;51.380;13.762;2023-02-18T11:51:32;12.70;81.20
27266;DHT22;14766;51.380;13.762;2023-02-18T11:57:09;12.90;80.80
27266;DHT22;14766;51.380;13.762;2023-02-18T11:59:39;12.90;80.50
27266;DHT22;14766;51.380;13.762;2023-02-18T12:04:44;13.00;79.80
27266;DHT22;14766;51.380;13.762;2023-02-18T12:07:23;13.00;80.30
27266;DHT22;14766;51.380;13.762;2023-02-18T12:10:02;13.10;79.10
27266;DHT22;14766;51.380;13.762;2023-02-18T12:12:35;13.10;78.70
27266;DHT22;14766;51.380;13.762;2023-02-18T12:15:04;13.20;78.70
27266;DHT22;14766;51.380;13.762;2023-02-18T12:17:48;13.20;78.60
27266;DHT22;14766;51.380;13.762;2023-02-18T12:20:21;13.30;78.30
27266;DHT22;14766;51.380;13.762;2023-02-18T12:23:34;13.40;77.90
27266;DHT22;14766;51.380;13.762;2023-02-18T12:29:33;13.50;77.00
27266;DHT22;14766;51.380;13.762;2023-02-18T12:31:55;13.60;76.60
27266;DHT22;14766;51.380;13.762;2023-02-18T12:45:40;13.70;73.80
27266;DHT22;14766;51.380;13.762;2023-02-18T12:51:09;13.80;73.40
27266;DHT22;14766;51.380;13.762;2023-02-18T12:59:35;13.90;71.50
27266;DHT22;14766;51.380;13.762;2023-02-18T13:07:37;13.80;70.40
27266;DHT22;14766;51.380;13.762;2023-02-18T13:10:26;13.80;70.50
27266;DHT22;14766;51.380;13.762;2023-02-18T13:13:16;13.80;70.10
27266;DHT22;14766;51.380;13.762;2023-02-18T13:18:30;13.80;69.60
27266;DHT22;14766;51.380;13.762;2023-02-18T13:21:03;13.80;69.30
27266;DHT22;14766;51.380;13.762;2023-02-18T13:23:37;13.90;69.10
27266;DHT22;14766;51.380;13.762;2023-02-18T13:26:08;13.80;69.30
27266;DHT22;14766;51.380;13.762;2023-02-18T13:39:53;13.80;69.10
27266;DHT22;14766;51.380;13.762;2023-02-18T13:50:28;13.70;69.10
27266;DHT22;14766;51.380;13.762;2023-02-18T13:55:40;13.70;68.70
27266;DHT22;14766;51.380;13.762;2023-02-18T14:01:13;13.70;68.30
27266;DHT22;14766;51.380;13.762;2023-02-18T14:06:19;13.70;68.20
27266;DHT22;14766;51.380;13.762;2023-02-18T14:08:47;13.70;68.40
27266;DHT22;14766;51.380;13.762;2023-02-18T14:13:55;13.60;68.40
27266;DHT22;14766;51.380;13.762;2023-02-18T14:22:54;13.60;68.60
27266;DHT22;14766;51.380;13.762;2023-02-18T14:27:53;13.60;68.10
27266;DHT22;14766;51.380;13.762;2023-02-18T14:32:50;13.60;67.30
27266;DHT22;14766;51.380;13.762;2023-02-18T14:35:38;13.60;66.70
27266;DHT22;14766;51.380;13.762;2023-02-18T14:38:26;13.60;67.20
27266;DHT22;14766;51.380;13.762;2023-02-18T14:52:37;13.60;65.80
27266;DHT22;14766;51.380;13.762;2023-02-18T14:55:04;13.60;66.10
27266;DHT22;14766;51.380;13.762;2023-02-18T14:57:45;13.60;66.80
27266;DHT22;14766;51.380;13.762;2023-02-18T15:00:21;13.60;67.80
27266;DHT22;14766;51.380;13.762;2023-02-18T15:02:51;13.60;68.80
27266;DHT22;14766;51.380;13.762;2023-02-18T15:05:20;13.60;69.30
27266;DHT22;14766;51.380;13.762;2023-02-18T15:10:42;13.50;70.60
27266;DHT22;14766;51.380;13.762;2023-02-18T15:15:55;13.40;70.80
27266;DHT22;14766;51.380;13.762;2023-02-18T15:18:53;13.30;70.60
27266;DHT22;14766;51.380;13.762;2023-02-18T15:24:12;13.20;70.30
27266;DHT22;14766;51.380;13.762;2023-02-18T15:26:46;13.20;70.40
27266;DHT22;14766;51.380;13.762;2023-02-18T15:29:23;13.20;70.60
27266;DHT22;14766;51.380;13.762;2023-02-18T15:31:51;13.20;70.50
27266;DHT22;14766;51.380;13.762;2023-02-18T15:36:51;13.10;70.50
27266;DHT22;14766;51.380;13.762;2023-02-18T15:39:18;13.10;70.20
27266;DHT22;14766;51.380;13.762;2023-02-18T15:41:45;13.10;70.10
27266;DHT22;14766;51.380;13.762;2023-02-18T15:44:21;13.10;70.20
27266;DHT22;14766;51.380;13.762;2023-02-18T15:46:49;13.10;70.20
27266;DHT22;14766;51.380;13.762;2023-02-18T15:49:19;13.10;69.90
27266;DHT22;14766;51.380;13.762;2023-02-18T15:51:48;13.10;70.70
27266;DHT22;14766;51.380;13.762;2023-02-18T15:54:19;13.10;70.90
27266;DHT22;14766;51.380;13.762;2023-02-18T15:56:53;13.10;69.70
27266;DHT22;14766;51.380;13.762;2023-02-18T16:01:50;13.10;70.10
27266;DHT22;14766;51.380;13.762;2023-02-18T16:04:23;13.10;69.70
27266;DHT22;14766;51.380;13.762;2023-02-18T16:06:52;13.10;69.40
27266;DHT22;14766;51.380;13.762;2023-02-18T16:09:31;13.10;69.20
27266;DHT22;14766;51.380;13.762;2023-02-18T16:12:01;13.10;69.30
27266;DHT22;14766;51.380;13.762;2023-02-18T16:14:33;13.10;70.00
27266;DHT22;14766;51.380;13.762;2023-02-18T16:17:21;13.10;70.50
27266;DHT22;14766;51.380;13.762;2023-02-18T16:22:44;13.10;71.30
27266;DHT22;14766;51.380;13.762;2023-02-18T16:30:30;13.10;71.80
27266;DHT22;14766;51.380;13.762;2023-02-18T16:32:58;13.00;71.60
27266;DHT22;14766;51.380;13.762;2023-02-18T16:35:28;13.00;71.60
27266;DHT22;14766;51.380;13.762;2023-02-18T16:38:03;13.00;71.60
27266;DHT22;14766;51.380;13.762;2023-02-18T16:40:35;12.90;71.40
27266;DHT22;14766;51.380;13.762;2023-02-18T16:45:39;12.90;71.70
27266;DHT22;14766;51.380;13.762;2023-02-18T16:48:31;12.80;71.40
27266;DHT22;14766;51.380;13.762;2023-02-18T16:51:04;12.80;71.10
27266;DHT22;14766;51.380;13.762;2023-02-18T16:53:31;12.80;71.40
27266;DHT22;14766;51.380;13.762;2023-02-18T16:55:58;12.80;71.70
27266;DHT22;14766;51.380;13.762;2023-02-18T16:58:28;12.80;71.90
27266;DHT22;14766;51.380;13.762;2023-02-18T17:00:55;12.90;72.20
27266;DHT22;14766;51.380;13.762;2023-02-18T17:03:23;12.80;72.70
27266;DHT22;14766;51.380;13.762;2023-02-18T17:05:50;12.90;73.10
27266;DHT22;14766;51.380;13.762;2023-02-18T17:08:24;12.90;72.80
27266;DHT22;14766;51.380;13.762;2023-02-18T17:10:56;12.80;72.80
27266;DHT22;14766;51.380;13.762;2023-02-18T17:13:26;12.80;72.80
27266;DHT22;14766;51.380;13.762;2023-02-18T17:15:55;12.90;72.80
27266;DHT22;14766;51.380;13.762;2023-02-18T17:18:24;12.80;72.70
27266;DHT22;14766;51.380;13.762;2023-02-18T17:20:52;12.80;73.10
27266;DHT22;14766;51.380;13.762;2023-02-18T17:23:21;12.80;73.90
27266;DHT22;14766;51.380;13.762;2023-02-18T17:25:50;12.80;74.60
27266;DHT22;14766;51.380;13.762;2023-02-18T17:28:17;12.70;75.10
27266;DHT22;14766;51.380;13.762;2023-02-18T17:30:56;12.70;75.40
27266;DHT22;14766;51.380;13.762;2023-02-18T17:33:24;12.70;75.80
27266;DHT22;14766;51.380;13.762;2023-02-18T17:35:52;12.60;76.00
27266;DHT22;14766;51.380;13.762;2023-02-18T17:38:19;12.60;76.20
27266;DHT22;14766;51.380;13.762;2023-02-18T17:40:47;12.60;76.40
27266;DHT22;14766;51.380;13.762;2023-02-18T17:43:17;12.60;76.50
27266;DHT22;14766;51.380;13.762;2023-02-18T17:45:49;12.60;77.00
27266;DHT22;14766;51.380;13.762;2023-02-18T17:48:16;12.50;77.10
27266;DHT22;14766;51.380;13.762;2023-02-18T17:50:43;12.50;77.10
27266;DHT22;14766;51.380;13.762;2023-02-18T17:53:11;12.50;77.10
27266;DHT22;14766;51.380;13.762;2023-02-18T17:55:39;12.60;76.80
27266;DHT22;14766;51.380;13.762;2023-02-18T17:58:07;12.60;77.50
27266;DHT22;14766;51.380;13.762;2023-02-18T18:00:40;12.60;77.30
27266;DHT22;14766;51.380;13.762;2023-02-18T18:03:08;12.60;77.20
27266;DHT22;14766;51.380;13.762;2023-02-18T18:05:38;12.50;77.30
27266;DHT22;14766;51.380;13.762;2023-02-18T18:08:06;12.50;77.30
27266;DHT22;14766;51.380;13.762;2023-02-18T18:10:37;12.50;77.20
27266;DHT22;14766;51.380;13.762;2023-02-18T18:13:07;12.50;77.10
27266;DHT22;14766;51.380;13.762;2023-02-18T18:15:39;12.50;76.80
27266;DHT22;14766;51.380;13.762;2023-02-18T18:18:09;12.40;76.50
27266;DHT22;14766;51.380;13.762;2023-02-18T18:20:38;12.50;76.60
27266;DHT22;14766;51.380;13.762;2023-02-18T18:23:06;12.40;76.60
27266;DHT22;14766;51.380;13.762;2023-02-18T18:25:39;12.40;76.60
27266;DHT22;14766;51.380;13.762;2023-02-18T18:28:07;12.50;76.60
27266;DHT22;14766;51.380;13.762;2023-02-18T18:30:37;12.50;76.80